Time;durP1;ratioP1;P1;durP2;ratioP2;P2;SDS_P1;SDS_P2;PMS_P1;PMS_P2;Temp;Humidity;BMP_temperature;BMP_pressure;BME280_temperature;BME280_humidity;BME280_pressure;Samples;Min_cycle;Max_cycle;Signal;HPM_P1;HPM_P2
2021/09/11 00:00:03;;;;;;;11.90;10.57;;;;;;;16.21;100.00;95991.00;1026830;28;20070;-67
2021/09/11 00:00:34;;;;;;;12.85;10.90;;;;;;;16.18;100.00;95981.00;1036818;28;20022;-65
2021/09/11 00:01:04;;;;;;;18.90;10.65;;;;;;;16.21;100.00;95991.00;1032389;28;20026;-65
2021/09/11 00:01:35;;;;;;;12.55;10.75;;;;;;;16.21;100.00;95987.56;1034393;28;20637;-68
2021/09/11 00:02:05;;;;;;;11.70;10.50;;;;;;;16.21;100.00;95984.91;1034379;28;20483;-66
2021/09/11 00:02:35;;;;;;;11.48;10.27;;;;;;;16.15;100.00;95973.63;1030806;28;20038;-67
2021/09/11 00:03:06;;;;;;;13.18;11.05;;;;;;;16.19;100.00;95987.84;1030574;28;20088;-68
2021/09/11 00:03:36;;;;;;;12.13;9.85;;;;;;;16.19;100.00;95985.19;1034025;28;20030;-65
2021/09/11 00:04:07;;;;;;;11.88;10.20;;;;;;;16.19;100.00;95984.41;1033992;28;20030;-66
2021/09/11 00:04:38;;;;;;;11.82;10.63;;;;;;;16.16;100.00;95985.81;1034611;28;20043;-66
2021/09/11 00:05:09;;;;;;;12.25;10.20;;;;;;;16.12;100.00;95976.84;1031940;28;20026;-67
2021/09/11 00:05:40;;;;;;;13.52;10.52;;;;;;;16.12;100.00;95982.16;1034161;28;20105;-67
2021/09/11 00:06:10;;;;;;;11.05;9.82;;;;;;;16.18;100.00;95991.56;1026634;28;20023;-68
2021/09/11 00:06:41;;;;;;;12.18;10.77;;;;;;;16.15;100.00;95984.22;1026301;28;20022;-67
2021/09/11 00:07:11;;;;;;;11.90;10.70;;;;;;;16.08;100.00;95981.16;1030579;28;20073;-67
2021/09/11 00:07:42;;;;;;;11.43;10.32;;;;;;;16.15;100.00;95986.88;1026974;28;20042;-68
2021/09/11 00:08:12;;;;;;;12.55;10.70;;;;;;;16.10;100.00;95979.03;1030446;28;20014;-68
2021/09/11 00:08:42;;;;;;;13.38;10.50;;;;;;;16.14;100.00;95987.94;1026582;28;20073;-67
2021/09/11 00:09:13;;;;;;;13.73;10.23;;;;;;;16.15;100.00;95994.81;1026847;28;20030;-66
2021/09/11 00:09:43;;;;;;;12.00;10.80;;;;;;;16.13;100.00;95983.75;1034644;28;20037;-68
2021/09/11 00:10:14;;;;;;;13.88;10.90;;;;;;;16.13;100.00;95988.22;1026624;28;20073;-64
2021/09/11 00:10:44;;;;;;;12.23;10.93;;;;;;;16.13;100.00;95986.38;1029096;28;20601;-66
2021/09/11 00:11:16;;;;;;;11.30;10.10;;;;;;;16.13;100.00;95991.69;1022204;29;20051;-66
2021/09/11 00:11:47;;;;;;;13.13;11.25;;;;;;;16.09;100.00;95980.09;1033193;28;20021;-68
2021/09/11 00:12:17;;;;;;;13.63;10.23;;;;;;;16.14;100.00;95987.94;1033882;28;20391;-67
2021/09/11 00:12:48;;;;;;;15.60;10.95;;;;;;;16.13;100.00;95985.56;1034255;28;20030;-67
2021/09/11 00:13:18;;;;;;;15.35;11.40;;;;;;;16.09;100.00;95981.94;1030921;28;20022;-67
2021/09/11 00:13:48;;;;;;;12.00;10.63;;;;;;;16.10;100.00;95997.56;1038677;28;20626;-63
2021/09/11 00:14:19;;;;;;;12.15;10.90;;;;;;;16.08;100.00;95985.69;1038863;28;20467;-67
2021/09/11 00:14:49;;;;;;;13.23;11.27;;;;;;;16.06;100.00;95985.97;1038405;28;20057;-67
2021/09/11 00:15:20;;;;;;;13.20;11.95;;;;;;;16.05;100.00;95992.34;1038910;28;20084;-67
2021/09/11 00:15:51;;;;;;;12.35;11.13;;;;;;;16.06;100.00;95993.13;1034475;28;20084;-67
2021/09/11 00:16:21;;;;;;;11.93;10.55;;;;;;;16.04;100.00;95993.41;1036106;28;20218;-67
2021/09/11 00:16:52;;;;;;;12.52;11.20;;;;;;;16.02;100.00;95987.63;1031419;28;20022;-67
2021/09/11 00:17:22;;;;;;;12.60;11.07;;;;;;;15.97;100.00;95985.06;1031716;28;20038;-67
2021/09/11 00:17:52;;;;;;;12.77;11.48;;;;;;;15.97;100.00;95990.38;1030646;28;20472;-67
2021/09/11 00:18:23;;;;;;;13.60;11.10;;;;;;;15.96;100.00;95988.78;1032062;28;20042;-68
2021/09/11 00:18:53;;;;;;;13.00;11.38;;;;;;;15.97;100.00;95995.66;1034656;28;20037;-67
2021/09/11 00:19:24;;;;;;;12.77;11.10;;;;;;;15.96;100.00;95994.88;1034358;28;20037;-67
2021/09/11 00:19:54;;;;;;;13.20;11.75;;;;;;;15.93;100.00;95990.16;1038079;28;20053;-64
2021/09/11 00:20:25;;;;;;;15.73;11.82;;;;;;;15.88;100.00;95981.50;1034920;28;20403;-65
2021/09/11 00:20:55;;;;;;;13.23;11.30;;;;;;;15.92;100.00;95991.22;1030419;28;20037;-63
2021/09/11 00:21:26;;;;;;;13.93;12.23;;;;;;;15.92;100.00;95998.38;1025975;28;20409;-66
2021/09/11 00:21:56;;;;;;;12.93;11.55;;;;;;;15.90;100.00;95995.25;1025379;28;20388;-67
2021/09/11 00:22:26;;;;;;;15.45;11.85;;;;;;;15.87;100.00;95996.59;1022629;28;20035;-66
2021/09/11 00:22:57;;;;;;;14.32;11.35;;;;;;;15.84;100.00;95997.19;1030657;28;20030;-66
2021/09/11 00:23:28;;;;;;;15.57;12.15;;;;;;;15.83;100.00;95994.81;1026271;28;20030;-65
2021/09/11 00:23:58;;;;;;;15.13;11.48;;;;;;;15.83;100.00;95989.53;1026929;28;20019;-67
2021/09/11 00:24:29;;;;;;;13.50;11.75;;;;;;;15.84;100.00;95996.41;1026611;28;20027;-67
2021/09/11 00:24:59;;;;;;;14.40;11.85;;;;;;;15.84;100.00;95997.19;1030668;28;20026;-67
2021/09/11 00:25:29;;;;;;;13.25;11.85;;;;;;;15.85;100.00;95997.97;1038608;28;20028;-65
2021/09/11 00:26:00;;;;;;;12.18;10.95;;;;;;;15.88;100.00;95994.75;1034671;28;20032;-66
2021/09/11 00:26:30;;;;;;;14.13;11.45;;;;;;;15.85;100.00;95996.09;1034802;28;20055;-67
2021/09/11 00:27:01;;;;;;;14.55;11.85;;;;;;;15.87;100.00;96001.13;1030115;28;20035;-67
2021/09/11 00:27:31;;;;;;;13.45;12.02;;;;;;;15.85;100.00;96000.63;1026415;28;20469;-68
2021/09/11 00:28:02;;;;;;;16.23;11.35;;;;;;;15.83;100.00;95994.81;1030410;28;20473;-67
2021/09/11 00:28:33;;;;;;;13.25;11.85;;;;;;;15.85;100.00;96004.03;1030236;28;20014;-68
2021/09/11 00:29:04;;;;;;;13.60;12.02;;;;;;;15.82;100.00;95990.59;1021931;28;20666;-67
2021/09/11 00:29:37;;;;;;;16.42;12.95;;;;;;;15.87;100.00;95995.81;1022311;28;20601;-66
2021/09/11 00:30:08;;;;;;;16.25;12.43;;;;;;;15.90;100.00;96000.53;1030340;28;20018;-66
2021/09/11 00:30:38;;;;;;;13.60;11.85;;;;;;;15.76;100.00;95980.13;1029830;28;20492;-67
2021/09/11 00:31:09;;;;;;;14.52;12.27;;;;;;;15.90;100.00;96000.53;1025852;28;20035;-68
2021/09/11 00:31:39;;;;;;;14.25;12.68;;;;;;;15.91;100.00;95996.81;1025924;28;20782;-65
2021/09/11 00:32:09;;;;;;;14.48;12.27;;;;;;;15.91;100.00;96002.09;1030531;28;20416;-68
2021/09/11 00:32:43;;;;;;;18.08;13.05;;;;;;;15.92;100.00;95995.72;1026574;28;20540;-65
2021/09/11 00:33:13;;;;;;;14.95;12.43;;;;;;;15.92;100.00;95995.72;1026429;28;20460;-66
2021/09/11 00:33:44;;;;;;;13.57;11.20;;;;;;;15.92;100.00;96001.03;1026902;28;20026;-65
2021/09/11 00:34:14;;;;;;;13.18;11.88;;;;;;;15.91;100.00;95992.31;1026508;28;20057;-67
2021/09/11 00:34:45;;;;;;;13.02;10.77;;;;;;;15.92;100.00;96001.03;1031153;28;20026;-66
2021/09/11 00:35:16;;;;;;;14.02;11.63;;;;;;;15.89;100.00;95991.00;1034192;28;20026;-67
2021/09/11 00:35:47;;;;;;;14.07;12.00;;;;;;;15.96;100.00;96000.16;1026539;28;20073;-66
2021/09/11 00:36:17;;;;;;;14.40;11.95;;;;;;;15.96;100.00;96004.66;1026359;28;20066;-67
2021/09/11 00:36:48;;;;;;;13.40;12.00;;;;;;;15.96;100.00;96002.00;1026169;28;20102;-67
2021/09/11 00:37:18;;;;;;;15.82;11.85;;;;;;;15.95;100.00;95998.56;1026391;28;20019;-67
2021/09/11 00:37:49;;;;;;;14.23;12.02;;;;;;;15.95;100.00;95998.56;1026273;28;20458;-67
2021/09/11 00:38:19;;;;;;;15.50;12.45;;;;;;;15.97;100.00;95998.31;1020708;28;20023;-63
2021/09/11 00:38:50;;;;;;;14.50;12.27;;;;;;;15.94;100.00;95996.25;1022328;29;20085;-67
2021/09/11 00:39:20;;;;;;;14.80;12.63;;;;;;;16.01;100.00;95997.44;1030264;28;20022;-66
2021/09/11 00:39:51;;;;;;;16.35;12.13;;;;;;;16.03;100.00;95999.78;1029005;28;20023;-67
2021/09/11 00:40:21;;;;;;;14.90;13.40;;;;;;;15.98;100.00;95994.56;1029837;28;20027;-67
2021/09/11 00:40:52;;;;;;;15.63;13.02;;;;;;;15.99;100.00;95988.97;1033928;28;20594;-67
2021/09/11 00:41:22;;;;;;;13.68;12.18;;;;;;;16.05;100.00;96005.56;1028027;28;20023;-67
2021/09/11 00:41:53;;;;;;;14.23;12.20;;;;;;;15.99;100.00;95996.91;1030379;28;20030;-68
2021/09/11 00:42:23;;;;;;;13.90;12.50;;;;;;;16.01;100.00;95994.78;1026588;28;20495;-67
2021/09/11 00:42:54;;;;;;;14.48;12.63;;;;;;;16.08;100.00;95996.28;1025259;28;20018;-66
2021/09/11 00:43:26;;;;;;;13.90;11.90;;;;;;;16.07;100.00;95997.34;1034788;28;20036;-64
2021/09/11 00:43:56;;;;;;;13.70;12.30;;;;;;;16.14;100.00;96003.84;1030388;28;20063;-67
2021/09/11 00:44:27;;;;;;;14.85;12.85;;;;;;;16.15;100.00;96002.75;1026699;28;20034;-63
2021/09/11 00:44:57;;;;;;;16.13;11.82;;;;;;;16.16;100.00;95991.09;1030616;28;20026;-67
2021/09/11 00:45:28;;;;;;;16.48;13.32;;;;;;;16.17;100.00;95994.53;1030643;28;20093;-67
2021/09/11 00:45:58;;;;;;;14.68;12.52;;;;;;;16.18;100.00;95999.53;1029932;28;20033;-67
2021/09/11 00:46:29;;;;;;;14.10;12.70;;;;;;;16.19;100.00;95998.44;1030354;28;20023;-67
2021/09/11 00:46:59;;;;;;;15.48;12.55;;;;;;;16.20;100.00;96005.31;1030445;28;20080;-67
2021/09/11 00:47:30;;;;;;;14.45;12.43;;;;;;;16.20;100.00;96002.69;1026937;28;20085;-67
2021/09/11 00:48:00;;;;;;;17.35;12.95;;;;;;;16.24;100.00;95998.38;1034937;28;20018;-66
2021/09/11 00:48:31;;;;;;;15.05;12.70;;;;;;;16.23;100.00;96001.28;1034554;28;20069;-67
2021/09/11 00:49:01;;;;;;;15.07;13.18;;;;;;;16.25;100.00;95996.50;1030851;28;20385;-67
2021/09/11 00:49:32;;;;;;;14.02;12.35;;;;;;;16.27;100.00;96004.94;1034655;28;20151;-67
2021/09/11 00:50:03;;;;;;;14.07;12.43;;;;;;;16.27;100.00;96005.72;1034567;28;20093;-67
2021/09/11 00:50:33;;;;;;;16.92;13.20;;;;;;;16.29;100.00;96002.78;1030291;28;20023;-67
2021/09/11 00:51:04;;;;;;;14.18;12.68;;;;;;;16.32;100.00;96012.78;1034829;28;20033;-67
2021/09/11 00:51:34;;;;;;;19.17;13.32;;;;;;;16.32;100.00;96006.69;1030142;28;20022;-67
2021/09/11 00:52:05;;;;;;;13.55;12.25;;;;;;;16.32;100.00;96001.41;1030349;28;20022;-66
2021/09/11 00:52:37;;;;;;;15.57;13.27;;;;;;;16.23;100.00;95996.78;1026653;28;20508;-67
2021/09/11 00:53:09;;;;;;;16.08;13.30;;;;;;;16.27;100.00;96005.72;1034691;28;20502;-67
2021/09/11 00:53:39;;;;;;;13.80;12.30;;;;;;;16.34;100.00;96015.16;1028545;28;20018;-67
2021/09/11 00:54:10;;;;;;;14.38;12.73;;;;;;;16.34;100.00;96008.00;1018525;29;20027;-67
2021/09/11 00:54:42;;;;;;;15.18;12.10;;;;;;;16.31;100.00;96000.63;1026746;28;20687;-67
2021/09/11 00:55:13;;;;;;;17.00;12.52;;;;;;;16.32;100.00;96007.47;1027433;28;20022;-66
2021/09/11 00:55:43;;;;;;;14.80;13.18;;;;;;;16.38;100.00;96016.13;1022436;28;20023;-68
2021/09/11 00:56:14;;;;;;;14.00;12.15;;;;;;;16.34;100.00;96009.84;1026584;28;20046;-63
2021/09/11 00:56:44;;;;;;;15.27;12.95;;;;;;;16.33;100.00;96002.97;1030832;28;20069;-67
2021/09/11 00:57:15;;;;;;;15.35;13.32;;;;;;;16.32;100.00;95998.75;1030688;28;20117;-67
2021/09/11 00:57:46;;;;;;;15.07;13.00;;;;;;;16.39;100.00;96004.44;1026666;28;20069;-68
2021/09/11 00:58:17;;;;;;;15.23;12.15;;;;;;;16.42;100.00;96014.47;1026649;28;20114;-67
2021/09/11 00:58:48;;;;;;;15.07;13.27;;;;;;;16.43;100.00;96008.09;1028176;28;20519;-66
2021/09/11 00:59:18;;;;;;;18.85;13.68;;;;;;;16.42;100.00;96012.59;1033314;28;20511;-67
2021/09/11 00:59:49;;;;;;;15.35;12.82;;;;;;;16.43;100.00;96010.72;1034551;28;20026;-67
2021/09/11 01:00:19;;;;;;;16.27;13.82;;;;;;;16.41;100.00;96004.97;1030818;28;20030;-66
2021/09/11 01:00:50;;;;;;;16.27;12.35;;;;;;;16.45;100.00;96008.59;1034757;28;20076;-68
2021/09/11 01:01:20;;;;;;;15.32;13.60;;;;;;;16.45;100.00;96011.22;1034179;28;20017;-67
2021/09/11 01:01:50;;;;;;;15.45;12.68;;;;;;;16.44;100.00;96014.97;1030685;28;20128;-67
2021/09/11 01:02:21;;;;;;;14.30;12.68;;;;;;;16.45;100.00;96012.00;1030633;28;20031;-67
2021/09/11 01:02:51;;;;;;;14.38;12.65;;;;;;;16.40;100.00;96003.41;1034428;28;20484;-66
2021/09/11 01:03:22;;;;;;;17.23;14.05;;;;;;;16.45;100.00;96008.59;1030805;28;20400;-66
2021/09/11 01:03:52;;;;;;;14.77;12.82;;;;;;;16.44;100.00;96005.16;1032398;28;20504;-67
2021/09/11 01:04:25;;;;;;;14.43;12.38;;;;;;;16.39;100.00;96005.22;1034699;28;20032;-66
2021/09/11 01:04:56;;;;;;;18.13;13.75;;;;;;;16.44;100.00;96009.69;1035193;28;20029;-66
2021/09/11 01:05:26;;;;;;;14.85;13.35;;;;;;;16.39;100.00;96004.44;1030306;28;20593;-66
2021/09/11 01:05:57;;;;;;;15.55;13.05;;;;;;;16.40;100.00;96012.13;1024682;28;20034;-67
2021/09/11 01:06:27;;;;;;;14.13;12.73;;;;;;;16.45;100.00;96014.66;1018582;29;20039;-67
2021/09/11 01:06:58;;;;;;;15.13;13.50;;;;;;;16.40;100.00;96008.69;1019607;29;20031;-65
2021/09/11 01:07:29;;;;;;;13.70;12.30;;;;;;;16.40;100.00;96006.03;1018448;29;20027;-67
2021/09/11 01:08:00;;;;;;;15.15;13.55;;;;;;;16.43;100.00;96014.19;1018620;29;20034;-64
2021/09/11 01:08:30;;;;;;;14.30;12.80;;;;;;;16.44;100.00;96014.97;1022748;29;20548;-68
2021/09/11 01:09:00;;;;;;;17.50;12.13;;;;;;;16.42;100.00;96011.81;1022376;28;20038;-67
2021/09/11 01:09:31;;;;;;;14.40;12.68;;;;;;;16.41;100.00;96015.56;1022855;28;20023;-67
2021/09/11 01:10:02;;;;;;;15.75;13.15;;;;;;;16.44;100.00;96022.91;1030834;28;20085;-65
2021/09/11 01:10:33;;;;;;;16.48;13.20;;;;;;;16.37;100.00;96009.28;1035489;28;20081;-67
2021/09/11 01:11:03;;;;;;;16.35;13.70;;;;;;;16.41;100.00;96012.91;1026474;28;20042;-66
2021/09/11 01:11:33;;;;;;;16.45;13.50;;;;;;;16.41;100.00;96015.56;1025917;28;20038;-68
2021/09/11 01:12:05;;;;;;;17.35;13.68;;;;;;;16.41;100.00;96018.19;1022747;29;20042;-65
2021/09/11 01:12:36;;;;;;;15.43;13.20;;;;;;;16.39;100.00;96021.13;1030480;28;20038;-67
2021/09/11 01:13:08;;;;;;;14.93;13.32;;;;;;;16.39;100.00;96020.34;1020887;28;20039;-67
2021/09/11 01:13:39;;;;;;;14.80;13.07;;;;;;;16.35;100.00;96014.84;1018842;29;20024;-67
2021/09/11 01:14:09;;;;;;;14.23;12.63;;;;;;;16.38;100.00;96022.22;1022532;29;20031;-67
2021/09/11 01:14:39;;;;;;;14.70;13.30;;;;;;;16.33;100.00;96019.66;1025814;28;20034;-67
2021/09/11 01:15:11;;;;;;;14.23;12.50;;;;;;;16.38;100.00;96021.44;1022620;28;20032;-67
2021/09/11 01:15:43;;;;;;;14.98;13.43;;;;;;;16.33;100.00;96013.56;1022597;28;20027;-68
2021/09/11 01:16:13;;;;;;;14.40;12.88;;;;;;;16.39;100.00;96020.34;1022423;29;20027;-66
2021/09/11 01:16:44;;;;;;;15.60;13.90;;;;;;;16.38;100.00;96027.50;1023547;28;20082;-68
2021/09/11 01:17:17;;;;;;;15.45;12.95;;;;;;;16.39;100.00;96023.00;1030252;28;20030;-66
2021/09/11 01:17:48;;;;;;;15.98;14.00;;;;;;;16.38;100.00;96018.78;1034654;28;20526;-67
2021/09/11 01:18:18;;;;;;;14.60;13.18;;;;;;;16.39;100.00;96023.78;1030714;28;20029;-67
2021/09/11 01:18:49;;;;;;;17.50;13.38;;;;;;;16.37;100.00;96019.88;1030677;28;20030;-67
2021/09/11 01:19:19;;;;;;;14.80;13.23;;;;;;;16.30;100.00;96012.31;1029565;28;20025;-67
2021/09/11 01:19:49;;;;;;;16.30;13.35;;;;;;;16.35;100.00;96019.38;1030480;28;20217;-66
2021/09/11 01:20:20;;;;;;;16.52;14.02;;;;;;;16.35;100.00;96022.00;1034684;28;20042;-68
2021/09/11 01:20:50;;;;;;;15.15;13.63;;;;;;;16.38;100.00;96021.44;1030624;28;20037;-64
2021/09/11 01:21:21;;;;;;;15.20;13.60;;;;;;;16.36;100.00;96023.56;1029582;28;20042;-67
2021/09/11 01:21:51;;;;;;;16.23;14.43;;;;;;;16.36;100.00;96020.94;1030376;28;20052;-68
2021/09/11 01:22:21;;;;;;;19.20;13.52;;;;;;;16.37;100.00;96025.94;1030611;28;20033;-67
2021/09/11 01:22:52;;;;;;;15.27;13.70;;;;;;;16.36;100.00;96026.22;1030693;28;20066;-67
2021/09/11 01:23:22;;;;;;;16.92;13.63;;;;;;;16.36;100.00;96023.56;1026309;28;20039;-67
2021/09/11 01:23:53;;;;;;;14.88;13.38;;;;;;;16.37;100.00;96023.31;1022812;28;20023;-66
2021/09/11 01:24:23;;;;;;;15.48;13.80;;;;;;;16.37;100.00;96025.16;1033656;28;20034;-66
2021/09/11 01:25:01;;;;;;;15.32;13.65;;;;;;;16.37;100.00;96031.25;1030775;28;20034;-67
2021/09/11 01:25:31;;;;;;;16.38;14.20;;;;;;;16.34;100.00;96015.16;1035525;28;20048;-67
2021/09/11 01:26:02;;;;;;;15.38;13.45;;;;;;;16.37;100.00;96019.88;1032105;28;20014;-68
2021/09/11 01:26:32;;;;;;;16.35;14.00;;;;;;;16.37;100.00;96020.66;1026583;28;20030;-67
2021/09/11 01:27:03;;;;;;;18.02;14.48;;;;;;;16.37;100.00;96019.88;1029851;28;20034;-67
2021/09/11 01:27:33;;;;;;;16.48;14.00;;;;;;;16.31;100.00;96015.72;1034517;28;20230;-67
2021/09/11 01:28:04;;;;;;;15.02;13.27;;;;;;;16.38;100.00;96022.22;1030642;28;20117;-67
2021/09/11 01:28:34;;;;;;;15.82;13.95;;;;;;;16.38;100.00;96018.78;1028169;28;20467;-67
2021/09/11 01:29:09;;;;;;;14.98;13.25;;;;;;;16.37;100.00;96020.66;1030588;28;20041;-67
2021/09/11 01:29:40;;;;;;;15.50;13.88;;;;;;;16.33;100.00;96014.38;1023994;28;20031;-67
2021/09/11 01:30:12;;;;;;;16.95;13.73;;;;;;;16.37;100.00;96025.16;1026945;28;20030;-67
2021/09/11 01:30:43;;;;;;;16.05;14.45;;;;;;;16.37;100.00;96019.88;1030622;28;20088;-66
2021/09/11 01:31:13;;;;;;;17.25;14.02;;;;;;;16.37;100.00;96019.88;1034715;28;20038;-67
2021/09/11 01:31:44;;;;;;;15.63;13.63;;;;;;;16.35;100.00;96016.72;1034663;28;20025;-66
2021/09/11 01:32:14;;;;;;;16.23;13.27;;;;;;;16.34;100.00;96017.81;1034632;28;20204;-67
2021/09/11 01:32:46;;;;;;;16.10;14.35;;;;;;;16.29;100.00;96008.06;1034526;28;20130;-66
2021/09/11 01:33:16;;;;;;;16.05;13.57;;;;;;;16.33;100.00;96014.38;1018661;29;20564;-67
2021/09/11 01:33:46;;;;;;;15.45;13.65;;;;;;;16.35;100.00;96016.72;1024934;28;20038;-66
2021/09/11 01:34:17;;;;;;;17.90;14.75;;;;;;;16.30;100.00;96007.00;1030163;28;20042;-66
2021/09/11 01:34:48;;;;;;;15.80;14.02;;;;;;;16.36;100.00;96018.28;1026881;28;20034;-63
2021/09/11 01:35:19;;;;;;;15.45;13.85;;;;;;;16.36;100.00;96018.28;1034850;28;20116;-68
2021/09/11 01:35:49;;;;;;;16.13;14.43;;;;;;;16.33;100.00;96013.56;1034535;28;20025;-67
2021/09/11 01:36:20;;;;;;;16.45;14.55;;;;;;;16.26;100.00;96008.66;1025768;28;20037;-67
2021/09/11 01:36:50;;;;;;;15.82;14.18;;;;;;;16.30;100.00;96008.84;1026334;28;20034;-68
2021/09/11 01:37:21;;;;;;;22.83;14.10;;;;;;;16.30;100.00;96014.16;1022692;29;20035;-67
2021/09/11 01:37:51;;;;;;;15.57;13.60;;;;;;;16.28;100.00;96014.44;1020652;28;20386;-67
2021/09/11 01:38:22;;;;;;;15.90;14.23;;;;;;;16.30;100.00;96008.84;1022776;29;20190;-67
2021/09/11 01:38:52;;;;;;;15.80;14.10;;;;;;;16.30;100.00;96014.16;1028807;28;20058;-67
2021/09/11 01:39:22;;;;;;;16.08;13.73;;;;;;;16.21;100.00;96004.22;1030726;28;20030;-68
2021/09/11 01:39:53;;;;;;;16.73;14.68;;;;;;;16.29;100.00;96017.88;1034713;28;20030;-68
2021/09/11 01:40:23;;;;;;;15.15;13.55;;;;;;;16.27;100.00;96010.25;1032145;28;20680;-68
2021/09/11 01:40:54;;;;;;;16.55;14.77;;;;;;;16.26;100.00;96014.75;1039691;28;20286;-67
2021/09/11 01:41:24;;;;;;;16.60;13.98;;;;;;;16.26;100.00;96012.09;1038711;28;20104;-65
2021/09/11 01:41:55;;;;;;;15.68;14.07;;;;;;;16.26;100.00;96008.66;1031529;28;20036;-68
2021/09/11 01:42:29;;;;;;;15.48;13.88;;;;;;;16.25;100.00;96017.69;1027229;28;20038;-68
2021/09/11 01:42:59;;;;;;;15.25;13.48;;;;;;;16.24;100.00;96026.72;1031348;28;20033;-67
2021/09/11 01:43:30;;;;;;;16.33;14.63;;;;;;;16.18;100.00;96007.47;1029319;28;20033;-66
2021/09/11 01:44:02;;;;;;;17.67;14.23;;;;;;;16.23;100.00;96019.81;1025164;28;20023;-66
2021/09/11 01:44:35;;;;;;;16.38;14.15;;;;;;;16.23;100.00;96025.13;1022276;29;20023;-67
2021/09/11 01:45:07;;;;;;;16.23;14.50;;;;;;;16.23;100.00;96014.53;1023984;28;20034;-66
2021/09/11 01:45:37;;;;;;;16.42;14.73;;;;;;;16.24;100.00;96021.41;1021763;28;20020;-67
2021/09/11 01:46:08;;;;;;;16.83;15.00;;;;;;;16.22;100.00;96012.97;1028054;28;20027;-66
2021/09/11 01:46:38;;;;;;;17.38;14.63;;;;;;;16.22;100.00;96023.56;1031163;28;20026;-65
2021/09/11 01:47:11;;;;;;;15.38;13.52;;;;;;;16.21;100.00;96027.28;1031618;28;20038;-66
2021/09/11 01:47:42;;;;;;;16.27;14.57;;;;;;;16.18;100.00;96010.13;1027665;28;20440;-66
2021/09/11 01:48:12;;;;;;;18.02;14.93;;;;;;;16.22;100.00;96018.25;1027004;28;20030;-67
2021/09/11 01:48:43;;;;;;;16.70;14.90;;;;;;;16.21;100.00;96022.78;1022838;28;20035;-66
2021/09/11 01:49:13;;;;;;;16.17;14.57;;;;;;;16.22;100.00;96024.34;1027276;28;20031;-66
2021/09/11 01:49:44;;;;;;;16.20;14.45;;;;;;;16.23;100.00;96019.81;1027298;28;20144;-67
2021/09/11 01:50:18;;;;;;;20.58;15.10;;;;;;;16.22;100.00;96016.38;1025254;28;20030;-68
2021/09/11 01:50:49;;;;;;;15.98;13.93;;;;;;;16.16;100.00;96011.47;1024399;28;20034;-67
2021/09/11 01:51:19;;;;;;;17.17;15.35;;;;;;;16.21;100.00;96024.63;1026286;28;20023;-64
2021/09/11 01:51:50;;;;;;;16.48;14.68;;;;;;;16.18;100.00;96018.06;1030385;28;20046;-67
2021/09/11 01:52:20;;;;;;;16.83;14.95;;;;;;;16.20;100.00;96026.50;1031262;28;20096;-67
2021/09/11 01:52:51;;;;;;;16.08;14.30;;;;;;;16.15;100.00;96018.63;1026794;28;20790;-67
2021/09/11 01:53:22;;;;;;;16.30;14.57;;;;;;;16.19;100.00;96013.53;1027208;28;20039;-67
2021/09/11 01:53:52;;;;;;;16.30;14.60;;;;;;;16.20;100.00;96023.84;1034707;28;20495;-67
2021/09/11 01:54:22;;;;;;;16.15;14.45;;;;;;;16.21;100.00;96025.41;1035283;28;20188;-67
2021/09/11 01:54:53;;;;;;;16.02;14.35;;;;;;;16.22;100.00;96024.34;1031158;28;20038;-67
2021/09/11 01:55:23;;;;;;;17.45;15.52;;;;;;;16.23;100.00;96014.53;1032878;28;20037;-67
2021/09/11 01:55:54;;;;;;;16.73;14.80;;;;;;;16.20;100.00;96023.06;1031314;28;20030;-65
2021/09/11 01:56:24;;;;;;;19.25;14.20;;;;;;;16.18;100.00;96020.69;1027143;28;20037;-65
2021/09/11 01:56:55;;;;;;;15.10;13.52;;;;;;;16.18;100.00;96018.06;1030425;28;20026;-67
2021/09/11 01:57:25;;;;;;;16.50;14.38;;;;;;;16.18;100.00;96023.34;1027299;28;20034;-67
2021/09/11 01:57:56;;;;;;;16.77;14.98;;;;;;;16.19;100.00;96024.91;1027306;28;20048;-67
2021/09/11 01:58:26;;;;;;;16.30;14.43;;;;;;;16.17;100.00;96021.00;1031332;28;20038;-67
2021/09/11 01:58:56;;;;;;;17.42;15.02;;;;;;;16.20;100.00;96026.50;1030765;28;20027;-67
2021/09/11 01:59:27;;;;;;;18.42;14.77;;;;;;;16.20;100.00;96026.50;1031061;28;20034;-63
2021/09/11 01:59:57;;;;;;;16.95;14.82;;;;;;;16.21;100.00;96028.06;1027335;28;20037;-67
2021/09/11 02:00:28;;;;;;;16.02;14.32;;;;;;;16.22;100.00;96023.56;1024359;28;20034;-67
2021/09/11 02:00:58;;;;;;;17.15;14.68;;;;;;;16.23;100.00;96027.75;1030840;28;21098;-67
2021/09/11 02:01:29;;;;;;;22.55;14.88;;;;;;;16.24;100.00;96021.41;1031408;28;20373;-67
2021/09/11 02:01:59;;;;;;;16.58;14.88;;;;;;;16.24;100.00;96030.13;1035344;28;20080;-67
2021/09/11 02:02:29;;;;;;;16.58;14.80;;;;;;;16.24;100.00;96024.84;1034038;28;20029;-69
2021/09/11 02:03:00;;;;;;;17.35;14.32;;;;;;;16.24;100.00;96018.75;1031167;28;20539;-66
2021/09/11 02:03:30;;;;;;;16.52;14.82;;;;;;;16.24;100.00;96030.13;1031269;28;20031;-67
2021/09/11 02:04:01;;;;;;;17.27;14.98;;;;;;;16.24;100.00;96024.84;1031012;28;20547;-68
2021/09/11 02:04:31;;;;;;;17.02;14.50;;;;;;;16.27;100.00;96024.25;1037313;28;20026;-68
2021/09/11 02:05:03;;;;;;;16.65;14.30;;;;;;;16.30;100.00;96027.38;1035065;28;20034;-67
2021/09/11 02:05:33;;;;;;;16.83;15.15;;;;;;;16.30;100.00;96020.25;1027132;28;20118;-68
2021/09/11 02:06:04;;;;;;;16.55;14.80;;;;;;;16.31;100.00;96021.81;1021835;28;20449;-66
2021/09/11 02:06:34;;;;;;;16.45;14.63;;;;;;;16.32;100.00;96022.59;1020114;28;20027;-67
2021/09/11 02:07:05;;;;;;;18.30;14.43;;;;;;;16.34;100.00;96020.44;1019114;29;20028;-65
2021/09/11 02:07:36;;;;;;;16.90;15.15;;;;;;;16.34;100.00;96025.75;1023273;28;20059;-67
2021/09/11 02:08:07;;;;;;;16.30;14.63;;;;;;;16.36;100.00;96028.88;1029991;28;20400;-67
2021/09/11 02:08:37;;;;;;;16.25;14.40;;;;;;;16.35;100.00;96028.09;1027886;28;20513;-67
2021/09/11 02:09:08;;;;;;;19.25;15.00;;;;;;;16.37;100.00;96022.53;1031221;28;20029;-68
2021/09/11 02:09:38;;;;;;;17.05;15.25;;;;;;;16.37;100.00;96027.81;1027411;28;20027;-68
2021/09/11 02:10:09;;;;;;;17.65;15.70;;;;;;;16.34;100.00;96021.22;1031145;28;20251;-67
2021/09/11 02:10:40;;;;;;;17.20;15.50;;;;;;;16.38;100.00;96024.06;1030953;28;20140;-67
2021/09/11 02:11:10;;;;;;;17.38;15.57;;;;;;;16.39;100.00;96026.41;1030145;28;20523;-65
2021/09/11 02:11:41;;;;;;;16.27;14.40;;;;;;;16.39;100.00;96031.72;1026937;28;20500;-67
2021/09/11 02:12:11;;;;;;;17.63;15.73;;;;;;;16.39;100.00;96025.66;1030623;28;20120;-68
2021/09/11 02:12:44;;;;;;;17.80;16.00;;;;;;;16.37;100.00;96031.25;1035429;28;20041;-67
2021/09/11 02:13:15;;;;;;;18.40;16.60;;;;;;;16.35;100.00;96028.09;1034810;28;20103;-67
2021/09/11 02:13:46;;;;;;;18.13;16.20;;;;;;;16.35;100.00;96027.31;1031799;28;20557;-66
2021/09/11 02:14:17;;;;;;;18.58;16.42;;;;;;;16.32;100.00;96022.59;1031190;28;20030;-67
2021/09/11 02:14:47;;;;;;;19.52;17.00;;;;;;;16.37;100.00;96041.06;1027844;28;20046;-67
2021/09/11 02:15:18;;;;;;;18.65;16.75;;;;;;;16.36;100.00;96031.53;1031127;28;20018;-67
2021/09/11 02:15:48;;;;;;;19.13;16.77;;;;;;;16.36;100.00;96036.81;1030820;28;20029;-66
2021/09/11 02:16:18;;;;;;;19.05;17.15;;;;;;;16.37;100.00;96027.81;1031308;28;20612;-67
2021/09/11 02:16:49;;;;;;;18.70;16.60;;;;;;;16.32;100.00;96033.19;1031095;28;20549;-67
2021/09/11 02:17:19;;;;;;;21.60;17.33;;;;;;;16.36;100.00;96034.94;1026336;28;20043;-67
2021/09/11 02:17:50;;;;;;;19.38;17.38;;;;;;;16.18;100.00;96012.75;1027323;28;20113;-67
2021/09/11 02:18:20;;;;;;;19.85;17.25;;;;;;;16.34;100.00;96041.63;1035136;28;20026;-68
2021/09/11 02:18:51;;;;;;;19.48;17.35;;;;;;;16.34;100.00;96042.41;1026988;28;20035;-68
2021/09/11 02:19:21;;;;;;;19.35;17.33;;;;;;;16.33;100.00;96045.34;1031267;28;20612;-68